sensor_id;sensor_type;location;lat;lon;timestamp;temperature;humidity
41694;DHT22;27377;50.666;9.150;2023-05-07T00:01:46;13.50;99.90
41694;DHT22;27377;50.666;9.150;2023-05-07T00:04:12;13.50;99.90
41694;DHT22;27377;50.666;9.150;2023-05-07T00:06:38;13.50;99.90
41694;DHT22;27377;50.666;9.150;2023-05-07T00:09:07;13.50;99.90
41694;DHT22;27377;50.666;9.150;2023-05-07T00:11:34;13.50;99.90
41694;DHT22;27377;50.666;9.150;2023-05-07T00:14:00;13.50;99.90
41694;DHT22;27377;50.666;9.150;2023-05-07T00:16:25;13.60;99.90
41694;DHT22;27377;50.666;9.150;2023-05-07T00:18:54;13.50;99.90
41694;DHT22;27377;50.666;9.150;2023-05-07T00:21:19;13.60;99.90
41694;DHT22;27377;50.666;9.150;2023-05-07T00:23:49;13.50;99.90
41694;DHT22;27377;50.666;9.150;2023-05-07T00:26:15;13.50;99.90
41694;DHT22;27377;50.666;9.150;2023-05-07T00:28:41;13.50;99.90
41694;DHT22;27377;50.666;9.150;2023-05-07T00:31:06;13.50;99.90
41694;DHT22;27377;50.666;9.150;2023-05-07T00:33:35;13.50;99.90
41694;DHT22;27377;50.666;9.150;2023-05-07T00:36:00;13.50;99.90
41694;DHT22;27377;50.666;9.150;2023-05-07T00:38:27;13.50;99.90
41694;DHT22;27377;50.666;9.150;2023-05-07T00:40:53;13.60;99.90
41694;DHT22;27377;50.666;9.150;2023-05-07T00:43:21;13.60;99.90
41694;DHT22;27377;50.666;9.150;2023-05-07T00:45:47;13.50;99.90
41694;DHT22;27377;50.666;9.150;2023-05-07T00:48:12;13.60;99.90
41694;DHT22;27377;50.666;9.150;2023-05-07T00:50:38;13.60;99.90
41694;DHT22;27377;50.666;9.150;2023-05-07T00:53:04;13.60;99.90
41694;DHT22;27377;50.666;9.150;2023-05-07T00:55:30;13.60;99.90
41694;DHT22;27377;50.666;9.150;2023-05-07T00:57:55;13.60;99.90
41694;DHT22;27377;50.666;9.150;2023-05-07T01:00:21;13.60;99.90
41694;DHT22;27377;50.666;9.150;2023-05-07T01:02:47;13.60;99.90
41694;DHT22;27377;50.666;9.150;2023-05-07T01:05:15;13.60;99.90
41694;DHT22;27377;50.666;9.150;2023-05-07T01:07:42;13.50;99.90
41694;DHT22;27377;50.666;9.150;2023-05-07T01:10:08;13.60;99.90
41694;DHT22;27377;50.666;9.150;2023-05-07T01:12:36;13.60;99.90
41694;DHT22;27377;50.666;9.150;2023-05-07T01:15:03;13.50;99.90
41694;DHT22;27377;50.666;9.150;2023-05-07T01:17:29;13.50;99.90
41694;DHT22;27377;50.666;9.150;2023-05-07T01:19:58;13.50;99.90
41694;DHT22;27377;50.666;9.150;2023-05-07T01:22:37;13.50;99.90
41694;DHT22;27377;50.666;9.150;2023-05-07T01:25:07;13.50;99.90
41694;DHT22;27377;50.666;9.150;2023-05-07T01:27:33;13.50;99.90
41694;DHT22;27377;50.666;9.150;2023-05-07T01:30:00;13.50;99.90
41694;DHT22;27377;50.666;9.150;2023-05-07T01:32:35;13.50;99.90
41694;DHT22;27377;50.666;9.150;2023-05-07T01:35:03;13.50;99.90
41694;DHT22;27377;50.666;9.150;2023-05-07T01:37:30;13.50;99.90
41694;DHT22;27377;50.666;9.150;2023-05-07T01:39:56;13.50;99.90
41694;DHT22;27377;50.666;9.150;2023-05-07T01:42:22;13.40;99.90
41694;DHT22;27377;50.666;9.150;2023-05-07T01:44:48;13.40;99.90
41694;DHT22;27377;50.666;9.150;2023-05-07T01:47:14;13.40;99.90
41694;DHT22;27377;50.666;9.150;2023-05-07T01:49:40;13.40;99.90
41694;DHT22;27377;50.666;9.150;2023-05-07T01:52:07;13.40;99.90
41694;DHT22;27377;50.666;9.150;2023-05-07T01:54:32;13.40;99.90
41694;DHT22;27377;50.666;9.150;2023-05-07T01:56:58;13.40;99.90
41694;DHT22;27377;50.666;9.150;2023-05-07T01:59:24;13.40;99.90
41694;DHT22;27377;50.666;9.150;2023-05-07T02:01:49;13.40;99.90
41694;DHT22;27377;50.666;9.150;2023-05-07T02:04:15;13.40;99.90
41694;DHT22;27377;50.666;9.150;2023-05-07T02:06:40;13.40;99.90
41694;DHT22;27377;50.666;9.150;2023-05-07T02:09:06;13.30;99.90
41694;DHT22;27377;50.666;9.150;2023-05-07T02:11:31;13.40;99.90
41694;DHT22;27377;50.666;9.150;2023-05-07T02:13:57;13.40;99.90
41694;DHT22;27377;50.666;9.150;2023-05-07T02:16:22;13.30;99.90
41694;DHT22;27377;50.666;9.150;2023-05-07T02:18:49;13.30;99.90
41694;DHT22;27377;50.666;9.150;2023-05-07T02:21:15;13.30;99.90
41694;DHT22;27377;50.666;9.150;2023-05-07T02:23:40;13.30;99.90
41694;DHT22;27377;50.666;9.150;2023-05-07T02:26:06;13.30;99.90
41694;DHT22;27377;50.666;9.150;2023-05-07T02:28:31;13.30;99.90
41694;DHT22;27377;50.666;9.150;2023-05-07T02:30:57;13.30;99.90
41694;DHT22;27377;50.666;9.150;2023-05-07T02:33:24;13.30;99.90
41694;DHT22;27377;50.666;9.150;2023-05-07T02:35:50;13.30;99.90
41694;DHT22;27377;50.666;9.150;2023-05-07T02:38:17;13.30;99.90
41694;DHT22;27377;50.666;9.150;2023-05-07T02:40:42;13.30;99.90
41694;DHT22;27377;50.666;9.150;2023-05-07T02:43:09;13.30;99.90
41694;DHT22;27377;50.666;9.150;2023-05-07T02:45:35;13.30;99.90
41694;DHT22;27377;50.666;9.150;2023-05-07T02:48:03;13.30;99.90
41694;DHT22;27377;50.666;9.150;2023-05-07T02:50:29;13.30;99.90
41694;DHT22;27377;50.666;9.150;2023-05-07T02:52:55;13.30;99.90
41694;DHT22;27377;50.666;9.150;2023-05-07T02:55:23;13.30;99.90
41694;DHT22;27377;50.666;9.150;2023-05-07T02:57:48;13.30;99.90
41694;DHT22;27377;50.666;9.150;2023-05-07T03:00:18;13.30;99.90
41694;DHT22;27377;50.666;9.150;2023-05-07T03:02:44;13.30;99.90
41694;DHT22;27377;50.666;9.150;2023-05-07T03:05:11;13.30;99.90
41694;DHT22;27377;50.666;9.150;2023-05-07T03:07:38;13.30;99.90
41694;DHT22;27377;50.666;9.150;2023-05-07T03:10:04;13.30;99.90
41694;DHT22;27377;50.666;9.150;2023-05-07T03:12:30;13.30;99.90
41694;DHT22;27377;50.666;9.150;2023-05-07T03:14:59;13.30;99.90
41694;DHT22;27377;50.666;9.150;2023-05-07T03:17:25;13.30;99.90
41694;DHT22;27377;50.666;9.150;2023-05-07T03:19:54;13.20;99.90
41694;DHT22;27377;50.666;9.150;2023-05-07T03:22:20;13.20;99.90
41694;DHT22;27377;50.666;9.150;2023-05-07T03:24:45;13.20;99.90
41694;DHT22;27377;50.666;9.150;2023-05-07T03:27:14;13.20;99.90
41694;DHT22;27377;50.666;9.150;2023-05-07T03:29:39;13.30;99.90
41694;DHT22;27377;50.666;9.150;2023-05-07T03:32:08;13.20;99.90
41694;DHT22;27377;50.666;9.150;2023-05-07T03:34:33;13.20;99.90
41694;DHT22;27377;50.666;9.150;2023-05-07T03:36:59;13.20;99.90
41694;DHT22;27377;50.666;9.150;2023-05-07T03:39:25;13.20;99.90
41694;DHT22;27377;50.666;9.150;2023-05-07T03:41:53;13.20;99.90
41694;DHT22;27377;50.666;9.150;2023-05-07T03:44:19;13.20;99.90
41694;DHT22;27377;50.666;9.150;2023-05-07T03:46:45;13.20;99.90
41694;DHT22;27377;50.666;9.150;2023-05-07T03:49:11;13.20;99.90
41694;DHT22;27377;50.666;9.150;2023-05-07T03:51:37;13.20;99.90
41694;DHT22;27377;50.666;9.150;2023-05-07T03:54:02;13.20;99.90
41694;DHT22;27377;50.666;9.150;2023-05-07T03:56:28;13.20;99.90
41694;DHT22;27377;50.666;9.150;2023-05-07T03:58:54;13.10;99.90
41694;DHT22;27377;50.666;9.150;2023-05-07T04:01:22;13.10;99.90
41694;DHT22;27377;50.666;9.150;2023-05-07T04:03:47;13.10;99.90
41694;DHT22;27377;50.666;9.150;2023-05-07T04:06:13;13.10;99.90
41694;DHT22;27377;50.666;9.150;2023-05-07T04:08:38;13.10;99.90
41694;DHT22;27377;50.666;9.150;2023-05-07T04:11:04;13.20;99.90
41694;DHT22;27377;50.666;9.150;2023-05-07T04:13:30;13.20;99.90
41694;DHT22;27377;50.666;9.150;2023-05-07T04:15:56;13.20;99.90
41694;DHT22;27377;50.666;9.150;2023-05-07T04:18:22;13.20;99.90
41694;DHT22;27377;50.666;9.150;2023-05-07T04:20:48;13.20;99.90
41694;DHT22;27377;50.666;9.150;2023-05-07T04:23:15;13.20;99.90
41694;DHT22;27377;50.666;9.150;2023-05-07T04:25:43;13.10;99.90
41694;DHT22;27377;50.666;9.150;2023-05-07T04:28:09;13.10;99.90
41694;DHT22;27377;50.666;9.150;2023-05-07T04:30:34;13.10;99.90
41694;DHT22;27377;50.666;9.150;2023-05-07T04:33:00;13.10;99.90
41694;DHT22;27377;50.666;9.150;2023-05-07T04:35:26;13.10;99.90
41694;DHT22;27377;50.666;9.150;2023-05-07T04:37:54;13.10;99.90
41694;DHT22;27377;50.666;9.150;2023-05-07T04:40:20;13.10;99.90
41694;DHT22;27377;50.666;9.150;2023-05-07T04:42:46;13.20;99.90
41694;DHT22;27377;50.666;9.150;2023-05-07T04:45:12;13.20;99.90
41694;DHT22;27377;50.666;9.150;2023-05-07T04:47:38;13.20;99.90
41694;DHT22;27377;50.666;9.150;2023-05-07T04:50:05;13.20;99.90
41694;DHT22;27377;50.666;9.150;2023-05-07T04:52:30;13.10;99.90
41694;DHT22;27377;50.666;9.150;2023-05-07T04:54:59;13.10;99.90
41694;DHT22;27377;50.666;9.150;2023-05-07T04:57:26;13.10;99.90
41694;DHT22;27377;50.666;9.150;2023-05-07T04:59:52;13.00;99.90
41694;DHT22;27377;50.666;9.150;2023-05-07T05:02:18;13.10;99.90
41694;DHT22;27377;50.666;9.150;2023-05-07T05:04:43;13.10;99.90
41694;DHT22;27377;50.666;9.150;2023-05-07T05:07:09;13.10;99.90
41694;DHT22;27377;50.666;9.150;2023-05-07T05:09:35;13.20;99.90
41694;DHT22;27377;50.666;9.150;2023-05-07T05:12:00;13.20;99.90
41694;DHT22;27377;50.666;9.150;2023-05-07T05:14:27;13.20;99.90
41694;DHT22;27377;50.666;9.150;2023-05-07T05:16:52;13.20;99.90
41694;DHT22;27377;50.666;9.150;2023-05-07T05:19:18;13.10;99.90
41694;DHT22;27377;50.666;9.150;2023-05-07T05:21:43;13.10;99.90
41694;DHT22;27377;50.666;9.150;2023-05-07T05:24:12;13.10;99.90
41694;DHT22;27377;50.666;9.150;2023-05-07T05:26:38;13.10;99.90
41694;DHT22;27377;50.666;9.150;2023-05-07T05:29:03;13.10;99.90
41694;DHT22;27377;50.666;9.150;2023-05-07T05:31:29;13.10;99.90
41694;DHT22;27377;50.666;9.150;2023-05-07T05:33:58;13.10;99.90
41694;DHT22;27377;50.666;9.150;2023-05-07T05:36:24;13.10;99.90
41694;DHT22;27377;50.666;9.150;2023-05-07T05:38:49;13.20;99.90
41694;DHT22;27377;50.666;9.150;2023-05-07T05:41:15;13.20;99.90
41694;DHT22;27377;50.666;9.150;2023-05-07T05:43:41;13.10;99.90
41694;DHT22;27377;50.666;9.150;2023-05-07T05:46:06;13.10;99.90
41694;DHT22;27377;50.666;9.150;2023-05-07T05:48:36;13.10;99.90
41694;DHT22;27377;50.666;9.150;2023-05-07T05:51:02;13.10;99.90
41694;DHT22;27377;50.666;9.150;2023-05-07T05:53:28;13.10;99.90
41694;DHT22;27377;50.666;9.150;2023-05-07T05:55:56;13.10;99.90
41694;DHT22;27377;50.666;9.150;2023-05-07T05:58:22;13.10;99.90
41694;DHT22;27377;50.666;9.150;2023-05-07T06:00:48;13.10;99.90
41694;DHT22;27377;50.666;9.150;2023-05-07T06:03:17;13.10;99.90
41694;DHT22;27377;50.666;9.150;2023-05-07T06:05:43;13.10;99.90
41694;DHT22;27377;50.666;9.150;2023-05-07T06:08:08;13.10;99.90
41694;DHT22;27377;50.666;9.150;2023-05-07T06:10:37;13.20;99.90
41694;DHT22;27377;50.666;9.150;2023-05-07T06:13:03;13.10;99.90
41694;DHT22;27377;50.666;9.150;2023-05-07T06:15:28;13.10;99.90
41694;DHT22;27377;50.666;9.150;2023-05-07T06:17:54;13.20;99.90
41694;DHT22;27377;50.666;9.150;2023-05-07T06:20:22;13.20;99.90
41694;DHT22;27377;50.666;9.150;2023-05-07T06:22:48;13.20;99.90
41694;DHT22;27377;50.666;9.150;2023-05-07T06:25:15;13.20;99.90
41694;DHT22;27377;50.666;9.150;2023-05-07T06:27:41;13.20;99.90
41694;DHT22;27377;50.666;9.150;2023-05-07T06:30:08;13.20;99.90
41694;DHT22;27377;50.666;9.150;2023-05-07T06:32:33;13.20;99.90
41694;DHT22;27377;50.666;9.150;2023-05-07T06:35:00;13.20;99.90
41694;DHT22;27377;50.666;9.150;2023-05-07T06:37:26;13.20;99.90
41694;DHT22;27377;50.666;9.150;2023-05-07T06:39:51;13.20;99.90
41694;DHT22;27377;50.666;9.150;2023-05-07T06:42:17;13.20;99.90
41694;DHT22;27377;50.666;9.150;2023-05-07T06:44:42;13.30;99.90
41694;DHT22;27377;50.666;9.150;2023-05-07T06:47:08;13.20;99.90
41694;DHT22;27377;50.666;9.150;2023-05-07T06:49:36;13.30;99.90
41694;DHT22;27377;50.666;9.150;2023-05-07T06:52:02;13.30;99.90
41694;DHT22;27377;50.666;9.150;2023-05-07T06:54:29;13.30;99.90
41694;DHT22;27377;50.666;9.150;2023-05-07T06:56:54;13.30;99.90
41694;DHT22;27377;50.666;9.150;2023-05-07T06:59:20;13.30;99.90
41694;DHT22;27377;50.666;9.150;2023-05-07T07:01:46;13.30;99.90
41694;DHT22;27377;50.666;9.150;2023-05-07T07:04:11;13.40;99.90
41694;DHT22;27377;50.666;9.150;2023-05-07T07:06:37;13.30;99.90
41694;DHT22;27377;50.666;9.150;2023-05-07T07:09:02;13.30;99.90
41694;DHT22;27377;50.666;9.150;2023-05-07T07:11:28;13.30;99.90
41694;DHT22;27377;50.666;9.150;2023-05-07T07:13:54;13.30;99.90
41694;DHT22;27377;50.666;9.150;2023-05-07T07:16:21;13.40;99.90
41694;DHT22;27377;50.666;9.150;2023-05-07T07:18:47;13.40;99.90
41694;DHT22;27377;50.666;9.150;2023-05-07T07:21:12;13.40;99.90
41694;DHT22;27377;50.666;9.150;2023-05-07T07:23:38;13.40;99.90
41694;DHT22;27377;50.666;9.150;2023-05-07T07:26:06;13.40;99.90
41694;DHT22;27377;50.666;9.150;2023-05-07T07:28:32;13.40;99.90
41694;DHT22;27377;50.666;9.150;2023-05-07T07:30:57;13.40;99.90
41694;DHT22;27377;50.666;9.150;2023-05-07T07:33:23;13.40;99.90
41694;DHT22;27377;50.666;9.150;2023-05-07T07:35:51;13.40;99.90
41694;DHT22;27377;50.666;9.150;2023-05-07T07:38:17;13.50;99.90
41694;DHT22;27377;50.666;9.150;2023-05-07T07:40:42;13.50;99.90
41694;DHT22;27377;50.666;9.150;2023-05-07T07:43:09;13.50;99.90
41694;DHT22;27377;50.666;9.150;2023-05-07T07:45:35;13.50;99.90
41694;DHT22;27377;50.666;9.150;2023-05-07T07:48:00;13.50;99.90
41694;DHT22;27377;50.666;9.150;2023-05-07T07:50:29;13.50;99.90
41694;DHT22;27377;50.666;9.150;2023-05-07T07:52:55;13.50;99.90
41694;DHT22;27377;50.666;9.150;2023-05-07T07:55:20;13.60;99.90
41694;DHT22;27377;50.666;9.150;2023-05-07T07:57:51;13.60;99.90
41694;DHT22;27377;50.666;9.150;2023-05-07T08:00:16;13.60;99.90
41694;DHT22;27377;50.666;9.150;2023-05-07T08:02:42;13.60;99.90
41694;DHT22;27377;50.666;9.150;2023-05-07T08:05:09;13.60;99.90
41694;DHT22;27377;50.666;9.150;2023-05-07T08:07:34;13.60;99.90
41694;DHT22;27377;50.666;9.150;2023-05-07T08:10:00;13.70;99.90
41694;DHT22;27377;50.666;9.150;2023-05-07T08:12:25;13.70;99.90
41694;DHT22;27377;50.666;9.150;2023-05-07T08:14:51;13.80;99.90
41694;DHT22;27377;50.666;9.150;2023-05-07T08:17:18;13.80;99.90
41694;DHT22;27377;50.666;9.150;2023-05-07T08:19:43;13.90;99.90
41694;DHT22;27377;50.666;9.150;2023-05-07T08:22:09;14.00;99.90
41694;DHT22;27377;50.666;9.150;2023-05-07T08:24:36;14.00;99.90
41694;DHT22;27377;50.666;9.150;2023-05-07T08:27:02;14.10;99.90
41694;DHT22;27377;50.666;9.150;2023-05-07T08:29:28;14.10;99.90
41694;DHT22;27377;50.666;9.150;2023-05-07T08:31:53;14.10;99.90
41694;DHT22;27377;50.666;9.150;2023-05-07T08:34:22;14.10;99.90
41694;DHT22;27377;50.666;9.150;2023-05-07T08:36:47;14.20;99.90
41694;DHT22;27377;50.666;9.150;2023-05-07T08:39:15;14.20;99.90
41694;DHT22;27377;50.666;9.150;2023-05-07T08:41:44;14.20;99.90
41694;DHT22;27377;50.666;9.150;2023-05-07T08:44:13;14.30;99.90
41694;DHT22;27377;50.666;9.150;2023-05-07T08:46:41;14.30;99.90
41694;DHT22;27377;50.666;9.150;2023-05-07T08:49:12;14.30;99.90
41694;DHT22;27377;50.666;9.150;2023-05-07T08:51:40;14.40;99.90
41694;DHT22;27377;50.666;9.150;2023-05-07T08:54:06;14.50;99.90
41694;DHT22;27377;50.666;9.150;2023-05-07T08:56:32;14.50;99.90
41694;DHT22;27377;50.666;9.150;2023-05-07T08:59:01;14.60;99.90
41694;DHT22;27377;50.666;9.150;2023-05-07T09:01:27;14.60;99.90
41694;DHT22;27377;50.666;9.150;2023-05-07T09:03:53;14.60;99.90
41694;DHT22;27377;50.666;9.150;2023-05-07T09:06:21;14.60;99.90
41694;DHT22;27377;50.666;9.150;2023-05-07T09:08:54;14.70;99.90
41694;DHT22;27377;50.666;9.150;2023-05-07T09:11:24;14.70;99.90
41694;DHT22;27377;50.666;9.150;2023-05-07T09:13:54;14.70;99.90
41694;DHT22;27377;50.666;9.150;2023-05-07T09:16:21;14.80;99.90
41694;DHT22;27377;50.666;9.150;2023-05-07T09:18:48;14.80;99.90
41694;DHT22;27377;50.666;9.150;2023-05-07T09:21:17;14.90;99.90
41694;DHT22;27377;50.666;9.150;2023-05-07T09:23:49;14.90;99.90
41694;DHT22;27377;50.666;9.150;2023-05-07T09:26:15;14.90;99.90
41694;DHT22;27377;50.666;9.150;2023-05-07T09:28:41;14.90;99.90
41694;DHT22;27377;50.666;9.150;2023-05-07T09:31:08;14.90;99.90
41694;DHT22;27377;50.666;9.150;2023-05-07T09:33:34;15.00;99.90
41694;DHT22;27377;50.666;9.150;2023-05-07T09:36:03;15.00;99.90
41694;DHT22;27377;50.666;9.150;2023-05-07T09:38:29;15.00;99.90
41694;DHT22;27377;50.666;9.150;2023-05-07T09:41:03;15.00;99.90
41694;DHT22;27377;50.666;9.150;2023-05-07T09:43:32;15.00;99.90
41694;DHT22;27377;50.666;9.150;2023-05-07T09:46:02;15.00;99.90
41694;DHT22;27377;50.666;9.150;2023-05-07T09:48:29;15.10;99.90
41694;DHT22;27377;50.666;9.150;2023-05-07T09:50:55;15.20;99.90
41694;DHT22;27377;50.666;9.150;2023-05-07T09:53:24;15.20;99.90
41694;DHT22;27377;50.666;9.150;2023-05-07T09:55:51;15.30;99.90
41694;DHT22;27377;50.666;9.150;2023-05-07T09:58:18;15.30;99.90
41694;DHT22;27377;50.666;9.150;2023-05-07T10:00:49;15.40;99.90
41694;DHT22;27377;50.666;9.150;2023-05-07T10:03:15;15.30;99.90
41694;DHT22;27377;50.666;9.150;2023-05-07T10:05:42;15.40;99.90
41694;DHT22;27377;50.666;9.150;2023-05-07T10:08:10;15.50;99.90
41694;DHT22;27377;50.666;9.150;2023-05-07T10:10:36;15.50;99.90
41694;DHT22;27377;50.666;9.150;2023-05-07T10:13:02;15.60;99.90
41694;DHT22;27377;50.666;9.150;2023-05-07T10:15:31;15.60;99.90
41694;DHT22;27377;50.666;9.150;2023-05-07T10:17:57;15.70;99.90
41694;DHT22;27377;50.666;9.150;2023-05-07T10:20:23;15.70;99.90
41694;DHT22;27377;50.666;9.150;2023-05-07T10:22:50;15.70;99.90
41694;DHT22;27377;50.666;9.150;2023-05-07T10:25:26;15.70;99.90
41694;DHT22;27377;50.666;9.150;2023-05-07T10:27:55;15.70;99.90
41694;DHT22;27377;50.666;9.150;2023-05-07T10:33:16;15.70;99.90
41694;DHT22;27377;50.666;9.150;2023-05-07T10:35:43;15.80;99.90
41694;DHT22;27377;50.666;9.150;2023-05-07T10:38:10;15.80;99.90
41694;DHT22;27377;50.666;9.150;2023-05-07T10:40:36;15.80;99.90
41694;DHT22;27377;50.666;9.150;2023-05-07T10:43:03;15.80;99.90
41694;DHT22;27377;50.666;9.150;2023-05-07T10:45:30;15.80;99.90
41694;DHT22;27377;50.666;9.150;2023-05-07T10:48:09;15.90;99.90
41694;DHT22;27377;50.666;9.150;2023-05-07T10:50:36;15.90;99.90
41694;DHT22;27377;50.666;9.150;2023-05-07T10:55:44;16.00;99.90
41694;DHT22;27377;50.666;9.150;2023-05-07T10:58:26;16.00;99.90
41694;DHT22;27377;50.666;9.150;2023-05-07T11:01:02;16.00;99.90
41694;DHT22;27377;50.666;9.150;2023-05-07T11:03:28;16.00;99.90
41694;DHT22;27377;50.666;9.150;2023-05-07T11:06:14;16.10;99.90
41694;DHT22;27377;50.666;9.150;2023-05-07T11:11:17;16.20;99.90
41694;DHT22;27377;50.666;9.150;2023-05-07T11:13:47;16.10;99.90
41694;DHT22;27377;50.666;9.150;2023-05-07T11:16:24;16.20;99.90
41694;DHT22;27377;50.666;9.150;2023-05-07T11:18:51;16.20;99.90
41694;DHT22;27377;50.666;9.150;2023-05-07T11:21:39;16.20;99.90
41694;DHT22;27377;50.666;9.150;2023-05-07T11:24:09;16.20;99.90
41694;DHT22;27377;50.666;9.150;2023-05-07T11:29:15;16.20;99.90
41694;DHT22;27377;50.666;9.150;2023-05-07T11:31:41;16.20;99.90
41694;DHT22;27377;50.666;9.150;2023-05-07T11:34:08;16.30;99.90
41694;DHT22;27377;50.666;9.150;2023-05-07T11:36:34;16.30;99.90
41694;DHT22;27377;50.666;9.150;2023-05-07T11:39:00;16.30;99.90
41694;DHT22;27377;50.666;9.150;2023-05-07T11:41:38;16.30;99.90
41694;DHT22;27377;50.666;9.150;2023-05-07T11:44:03;16.40;99.90
41694;DHT22;27377;50.666;9.150;2023-05-07T11:46:30;16.40;99.90
41694;DHT22;27377;50.666;9.150;2023-05-07T11:48:56;16.50;99.90
41694;DHT22;27377;50.666;9.150;2023-05-07T11:51:25;16.50;99.90
41694;DHT22;27377;50.666;9.150;2023-05-07T11:53:51;16.50;99.90
41694;DHT22;27377;50.666;9.150;2023-05-07T11:56:18;16.50;99.90
41694;DHT22;27377;50.666;9.150;2023-05-07T11:58:46;16.50;99.90
41694;DHT22;27377;50.666;9.150;2023-05-07T12:01:12;16.50;99.90
41694;DHT22;27377;50.666;9.150;2023-05-07T12:03:42;16.50;99.90
41694;DHT22;27377;50.666;9.150;2023-05-07T12:06:08;16.50;99.90
41694;DHT22;27377;50.666;9.150;2023-05-07T12:08:37;16.50;99.90
41694;DHT22;27377;50.666;9.150;2023-05-07T12:11:12;16.50;99.90
41694;DHT22;27377;50.666;9.150;2023-05-07T12:13:38;16.50;99.90
41694;DHT22;27377;50.666;9.150;2023-05-07T12:16:04;16.50;99.90
41694;DHT22;27377;50.666;9.150;2023-05-07T12:18:31;16.50;99.90
41694;DHT22;27377;50.666;9.150;2023-05-07T12:20:57;16.60;99.90
41694;DHT22;27377;50.666;9.150;2023-05-07T12:23:22;16.60;99.90
41694;DHT22;27377;50.666;9.150;2023-05-07T12:25:48;16.70;99.90
41694;DHT22;27377;50.666;9.150;2023-05-07T12:28:15;16.70;99.90
41694;DHT22;27377;50.666;9.150;2023-05-07T12:30:42;16.70;99.90
41694;DHT22;27377;50.666;9.150;2023-05-07T12:33:09;16.70;99.90
41694;DHT22;27377;50.666;9.150;2023-05-07T12:35:40;16.70;99.90
41694;DHT22;27377;50.666;9.150;2023-05-07T12:38:11;16.70;99.90
41694;DHT22;27377;50.666;9.150;2023-05-07T12:40:43;16.80;99.90
41694;DHT22;27377;50.666;9.150;2023-05-07T12:43:19;16.80;99.90
41694;DHT22;27377;50.666;9.150;2023-05-07T12:45:47;16.80;99.90
41694;DHT22;27377;50.666;9.150;2023-05-07T12:48:13;16.80;99.90
41694;DHT22;27377;50.666;9.150;2023-05-07T12:50:40;16.80;99.90
41694;DHT22;27377;50.666;9.150;2023-05-07T12:53:06;16.80;99.90
41694;DHT22;27377;50.666;9.150;2023-05-07T12:55:41;16.80;99.90
41694;DHT22;27377;50.666;9.150;2023-05-07T12:58:07;16.80;99.90
41694;DHT22;27377;50.666;9.150;2023-05-07T13:00:37;16.80;99.90
41694;DHT22;27377;50.666;9.150;2023-05-07T13:03:03;16.80;99.90
41694;DHT22;27377;50.666;9.150;2023-05-07T13:05:29;16.90;99.90
41694;DHT22;27377;50.666;9.150;2023-05-07T13:07:55;16.90;99.90
41694;DHT22;27377;50.666;9.150;2023-05-07T13:10:25;17.00;99.90
41694;DHT22;27377;50.666;9.150;2023-05-07T13:12:51;17.10;99.90
41694;DHT22;27377;50.666;9.150;2023-05-07T13:15:17;17.10;99.90
41694;DHT22;27377;50.666;9.150;2023-05-07T13:17:43;17.20;99.90
41694;DHT22;27377;50.666;9.150;2023-05-07T13:20:10;17.20;99.90
41694;DHT22;27377;50.666;9.150;2023-05-07T13:22:36;17.30;99.90
41694;DHT22;27377;50.666;9.150;2023-05-07T13:25:01;17.30;99.90
41694;DHT22;27377;50.666;9.150;2023-05-07T13:27:30;17.40;99.90
41694;DHT22;27377;50.666;9.150;2023-05-07T13:29:56;17.40;99.90
41694;DHT22;27377;50.666;9.150;2023-05-07T13:32:22;17.40;99.90
41694;DHT22;27377;50.666;9.150;2023-05-07T13:34:48;17.40;99.90
41694;DHT22;27377;50.666;9.150;2023-05-07T13:37:14;17.40;99.90
41694;DHT22;27377;50.666;9.150;2023-05-07T13:39:40;17.40;99.90
41694;DHT22;27377;50.666;9.150;2023-05-07T13:42:06;17.40;99.90
41694;DHT22;27377;50.666;9.150;2023-05-07T13:44:32;17.40;99.90
41694;DHT22;27377;50.666;9.150;2023-05-07T13:46:58;17.40;99.90
41694;DHT22;27377;50.666;9.150;2023-05-07T13:49:24;17.50;99.90
41694;DHT22;27377;50.666;9.150;2023-05-07T13:51:50;17.50;99.90
41694;DHT22;27377;50.666;9.150;2023-05-07T13:54:15;17.50;99.90
41694;DHT22;27377;50.666;9.150;2023-05-07T13:56:41;17.50;99.90
41694;DHT22;27377;50.666;9.150;2023-05-07T13:59:07;17.60;99.90
41694;DHT22;27377;50.666;9.150;2023-05-07T14:01:33;17.60;99.90
41694;DHT22;27377;50.666;9.150;2023-05-07T14:03:59;17.60;99.90
41694;DHT22;27377;50.666;9.150;2023-05-07T14:06:25;17.60;99.90
41694;DHT22;27377;50.666;9.150;2023-05-07T14:08:51;17.70;99.90
41694;DHT22;27377;50.666;9.150;2023-05-07T14:11:17;17.70;99.90
41694;DHT22;27377;50.666;9.150;2023-05-07T14:13:43;17.70;99.90
41694;DHT22;27377;50.666;9.150;2023-05-07T14:16:08;17.70;99.90
41694;DHT22;27377;50.666;9.150;2023-05-07T14:18:34;17.80;99.90
41694;DHT22;27377;50.666;9.150;2023-05-07T14:21:02;17.80;99.90
41694;DHT22;27377;50.666;9.150;2023-05-07T14:23:28;17.70;99.90
41694;DHT22;27377;50.666;9.150;2023-05-07T14:25:54;17.80;99.90
41694;DHT22;27377;50.666;9.150;2023-05-07T14:28:22;17.70;99.90
41694;DHT22;27377;50.666;9.150;2023-05-07T14:30:48;17.70;99.90
41694;DHT22;27377;50.666;9.150;2023-05-07T14:33:14;17.70;99.90
41694;DHT22;27377;50.666;9.150;2023-05-07T14:35:39;17.70;99.90
41694;DHT22;27377;50.666;9.150;2023-05-07T14:38:05;17.70;99.90
41694;DHT22;27377;50.666;9.150;2023-05-07T14:40:30;17.60;99.90
41694;DHT22;27377;50.666;9.150;2023-05-07T14:42:56;17.70;99.90
41694;DHT22;27377;50.666;9.150;2023-05-07T14:45:23;17.60;99.90
41694;DHT22;27377;50.666;9.150;2023-05-07T14:47:48;17.60;99.90
41694;DHT22;27377;50.666;9.150;2023-05-07T14:50:14;17.60;99.90
41694;DHT22;27377;50.666;9.150;2023-05-07T14:52:39;17.60;99.90
41694;DHT22;27377;50.666;9.150;2023-05-07T14:55:05;17.60;99.90
41694;DHT22;27377;50.666;9.150;2023-05-07T14:57:31;17.60;99.90
41694;DHT22;27377;50.666;9.150;2023-05-07T15:00:01;17.60;99.90
41694;DHT22;27377;50.666;9.150;2023-05-07T15:02:30;17.60;99.90
41694;DHT22;27377;50.666;9.150;2023-05-07T15:04:56;17.60;99.90
41694;DHT22;27377;50.666;9.150;2023-05-07T15:07:21;17.60;99.90
41694;DHT22;27377;50.666;9.150;2023-05-07T15:09:47;17.60;99.90
41694;DHT22;27377;50.666;9.150;2023-05-07T15:12:13;17.60;99.90
41694;DHT22;27377;50.666;9.150;2023-05-07T15:14:39;17.60;99.90
41694;DHT22;27377;50.666;9.150;2023-05-07T15:17:05;17.60;99.90
41694;DHT22;27377;50.666;9.150;2023-05-07T15:19:33;17.60;99.90
41694;DHT22;27377;50.666;9.150;2023-05-07T15:22:00;17.70;99.90
41694;DHT22;27377;50.666;9.150;2023-05-07T15:24:29;17.70;99.90
41694;DHT22;27377;50.666;9.150;2023-05-07T15:26:54;17.70;99.90
41694;DHT22;27377;50.666;9.150;2023-05-07T15:29:20;17.70;99.90
41694;DHT22;27377;50.666;9.150;2023-05-07T15:31:46;17.60;99.90
41694;DHT22;27377;50.666;9.150;2023-05-07T15:34:12;17.60;99.90
41694;DHT22;27377;50.666;9.150;2023-05-07T15:36:40;17.60;99.90
41694;DHT22;27377;50.666;9.150;2023-05-07T15:39:06;17.60;99.90